sensor_id;sensor_type;location;lat;lon;timestamp;pressure;altitude;pressure_sealevel;temperature;humidity
4012;BME280;2020;48.682;9.024;2023-06-22T00:00:49;96493.63;;;20.43;86.47
4012;BME280;2020;48.682;9.024;2023-06-22T00:03:14;96491.41;;;20.40;86.31
4012;BME280;2020;48.682;9.024;2023-06-22T00:05:39;96479.72;;;20.48;86.01
4012;BME280;2020;48.682;9.024;2023-06-22T00:08:08;96484.28;;;20.40;86.21
4012;BME280;2020;48.682;9.024;2023-06-22T00:10:33;96494.84;;;20.40;85.97
4012;BME280;2020;48.682;9.024;2023-06-22T00:12:58;96492.44;;;20.39;86.13
4012;BME280;2020;48.682;9.024;2023-06-22T00:15:24;96503.03;;;20.32;86.53
4012;BME280;2020;48.682;9.024;2023-06-22T00:17:50;96495.28;;;20.37;86.31
4012;BME280;2020;48.682;9.024;2023-06-22T00:20:16;96505.69;;;20.32;86.91
4012;BME280;2020;48.682;9.024;2023-06-22T00:22:43;96508.75;;;20.29;86.92
4012;BME280;2020;48.682;9.024;2023-06-22T00:25:09;96498.75;;;20.38;86.40
4012;BME280;2020;48.682;9.024;2023-06-22T00:27:35;96497.88;;;20.19;87.41
4012;BME280;2020;48.682;9.024;2023-06-22T00:30:00;96493.47;;;20.12;88.30
4012;BME280;2020;48.682;9.024;2023-06-22T00:32:25;96488.59;;;20.09;88.33
4012;BME280;2020;48.682;9.024;2023-06-22T00:34:51;96486.66;;;19.98;89.19
4012;BME280;2020;48.682;9.024;2023-06-22T00:37:16;96487.41;;;20.05;88.82
4012;BME280;2020;48.682;9.024;2023-06-22T00:39:43;96492.44;;;20.13;88.20
4012;BME280;2020;48.682;9.024;2023-06-22T00:42:08;96486.13;;;20.14;88.22
4012;BME280;2020;48.682;9.024;2023-06-22T00:44:35;96496.78;;;20.01;89.18
4012;BME280;2020;48.682;9.024;2023-06-22T00:47:00;96502.06;;;20.01;89.58
4012;BME280;2020;48.682;9.024;2023-06-22T00:49:25;96500.78;;;20.10;88.90
4012;BME280;2020;48.682;9.024;2023-06-22T00:51:52;96503.84;;;20.07;89.13
4012;BME280;2020;48.682;9.024;2023-06-22T00:54:17;96511.78;;;20.07;89.12
4012;BME280;2020;48.682;9.024;2023-06-22T00:56:51;96534.44;;;20.22;87.79
4012;BME280;2020;48.682;9.024;2023-06-22T00:59:20;96546.47;;;20.17;87.76
4012;BME280;2020;48.682;9.024;2023-06-22T01:01:45;96547.91;;;20.13;88.56
4012;BME280;2020;48.682;9.024;2023-06-22T01:04:10;96552.69;;;19.98;89.31
4012;BME280;2020;48.682;9.024;2023-06-22T01:06:43;96530.97;;;19.96;89.57
4012;BME280;2020;48.682;9.024;2023-06-22T01:09:15;96546.38;;;19.99;89.75
4012;BME280;2020;48.682;9.024;2023-06-22T01:11:52;96559.34;;;20.07;89.82
4012;BME280;2020;48.682;9.024;2023-06-22T01:14:35;96537.09;;;19.90;90.63
4012;BME280;2020;48.682;9.024;2023-06-22T01:17:04;96506.66;;;19.80;90.87
4012;BME280;2020;48.682;9.024;2023-06-22T01:19:45;96509.03;;;19.88;90.71
4012;BME280;2020;48.682;9.024;2023-06-22T01:22:16;96518.94;;;20.00;89.46
4012;BME280;2020;48.682;9.024;2023-06-22T01:25:19;96510.75;;;19.76;91.11
4012;BME280;2020;48.682;9.024;2023-06-22T01:28:20;96499.50;;;19.55;92.85
4012;BME280;2020;48.682;9.024;2023-06-22T01:30:49;96496.69;;;19.50;93.40
4012;BME280;2020;48.682;9.024;2023-06-22T01:33:15;96503.94;;;19.62;92.46
4012;BME280;2020;48.682;9.024;2023-06-22T01:35:41;96493.72;;;19.72;91.56
4012;BME280;2020;48.682;9.024;2023-06-22T01:38:08;96496.56;;;19.70;91.82
4012;BME280;2020;48.682;9.024;2023-06-22T01:40:35;96493.28;;;19.75;91.28
4012;BME280;2020;48.682;9.024;2023-06-22T01:43:02;96496.28;;;19.85;90.46
4012;BME280;2020;48.682;9.024;2023-06-22T01:45:28;96494.47;;;19.79;90.86
4012;BME280;2020;48.682;9.024;2023-06-22T01:47:54;96500.28;;;19.63;91.93
4012;BME280;2020;48.682;9.024;2023-06-22T01:50:19;96503.09;;;19.68;91.67
4012;BME280;2020;48.682;9.024;2023-06-22T01:52:45;96506.75;;;19.67;91.74
4012;BME280;2020;48.682;9.024;2023-06-22T01:55:10;96517.31;;;19.67;91.91
4012;BME280;2020;48.682;9.024;2023-06-22T01:57:36;96505.28;;;19.39;93.57
4012;BME280;2020;48.682;9.024;2023-06-22T02:00:04;96511.41;;;19.33;94.19
4012;BME280;2020;48.682;9.024;2023-06-22T02:02:37;96512.25;;;19.26;94.49
4012;BME280;2020;48.682;9.024;2023-06-22T02:05:08;96517.44;;;19.40;94.16
4012;BME280;2020;48.682;9.024;2023-06-22T02:07:49;96521.47;;;19.49;93.19
4012;BME280;2020;48.682;9.024;2023-06-22T02:10:19;96524.69;;;19.51;92.53
4012;BME280;2020;48.682;9.024;2023-06-22T02:12:45;96520.72;;;19.35;93.14
4012;BME280;2020;48.682;9.024;2023-06-22T02:15:12;96515.84;;;19.32;93.67
4012;BME280;2020;48.682;9.024;2023-06-22T02:17:39;96508.53;;;19.34;93.34
4012;BME280;2020;48.682;9.024;2023-06-22T02:20:12;96511.75;;;19.43;93.02
4012;BME280;2020;48.682;9.024;2023-06-22T02:22:38;96507.25;;;19.50;92.59
4012;BME280;2020;48.682;9.024;2023-06-22T02:25:03;96515.34;;;19.55;92.08
4012;BME280;2020;48.682;9.024;2023-06-22T02:27:29;96510.91;;;19.49;92.12
4012;BME280;2020;48.682;9.024;2023-06-22T02:29:54;96502.88;;;19.31;93.24
4012;BME280;2020;48.682;9.024;2023-06-22T02:32:19;96491.47;;;19.37;92.81
4012;BME280;2020;48.682;9.024;2023-06-22T02:34:45;96490.28;;;19.33;92.82
4012;BME280;2020;48.682;9.024;2023-06-22T02:37:13;96489.88;;;19.36;92.33
4012;BME280;2020;48.682;9.024;2023-06-22T02:39:40;96498.81;;;19.28;92.74
4012;BME280;2020;48.682;9.024;2023-06-22T02:42:05;96494.78;;;19.25;92.63
4012;BME280;2020;48.682;9.024;2023-06-22T02:44:30;96486.91;;;19.12;94.01
4012;BME280;2020;48.682;9.024;2023-06-22T02:46:56;96485.53;;;19.03;94.27
4012;BME280;2020;48.682;9.024;2023-06-22T02:49:21;96469.69;;;19.09;94.17
4012;BME280;2020;48.682;9.024;2023-06-22T02:51:47;96475.16;;;19.08;93.47
4012;BME280;2020;48.682;9.024;2023-06-22T02:54:13;96477.97;;;19.13;92.82
4012;BME280;2020;48.682;9.024;2023-06-22T02:56:38;96466.41;;;19.14;92.65
4012;BME280;2020;48.682;9.024;2023-06-22T02:59:06;96474.91;;;19.16;92.20
4012;BME280;2020;48.682;9.024;2023-06-22T03:01:31;96472.88;;;19.18;92.31
4012;BME280;2020;48.682;9.024;2023-06-22T03:04:03;96474.91;;;19.16;92.15
4012;BME280;2020;48.682;9.024;2023-06-22T03:06:28;96464.31;;;19.29;91.35
4012;BME280;2020;48.682;9.024;2023-06-22T03:09:00;96471.22;;;19.31;89.86
4012;BME280;2020;48.682;9.024;2023-06-22T03:11:25;96477.53;;;19.29;91.02
4012;BME280;2020;48.682;9.024;2023-06-22T03:13:51;96471.22;;;19.31;91.27
4012;BME280;2020;48.682;9.024;2023-06-22T03:16:17;96476.09;;;19.27;90.97
4012;BME280;2020;48.682;9.024;2023-06-22T03:18:43;96475.72;;;19.23;91.51
4012;BME280;2020;48.682;9.024;2023-06-22T03:21:08;96484.84;;;19.27;91.35
4012;BME280;2020;48.682;9.024;2023-06-22T03:23:34;96484.22;;;19.25;91.25
4012;BME280;2020;48.682;9.024;2023-06-22T03:25:59;96473.91;;;19.17;92.08
4012;BME280;2020;48.682;9.024;2023-06-22T03:28:24;96463.59;;;19.09;92.71
4012;BME280;2020;48.682;9.024;2023-06-22T03:30:49;96452.84;;;19.04;93.22
4012;BME280;2020;48.682;9.024;2023-06-22T03:33:15;96462.59;;;18.96;93.92
4012;BME280;2020;48.682;9.024;2023-06-22T03:35:40;96463.44;;;18.90;94.43
4012;BME280;2020;48.682;9.024;2023-06-22T03:38:05;96465.84;;;18.98;93.96
4012;BME280;2020;48.682;9.024;2023-06-22T03:40:30;96460.34;;;19.07;93.22
4012;BME280;2020;48.682;9.024;2023-06-22T03:42:56;96464.41;;;19.03;93.61
4012;BME280;2020;48.682;9.024;2023-06-22T03:45:21;96454.28;;;18.99;93.50
4012;BME280;2020;48.682;9.024;2023-06-22T03:47:46;96452.69;;;18.92;94.23
4012;BME280;2020;48.682;9.024;2023-06-22T03:50:11;96459.63;;;18.73;95.14
4012;BME280;2020;48.682;9.024;2023-06-22T03:52:37;96457.59;;;18.75;95.32
4012;BME280;2020;48.682;9.024;2023-06-22T03:55:02;96453.94;;;18.76;95.54
4012;BME280;2020;48.682;9.024;2023-06-22T03:57:28;96451.84;;;18.91;94.56
4012;BME280;2020;48.682;9.024;2023-06-22T03:59:55;96457.00;;;18.73;95.60
4012;BME280;2020;48.682;9.024;2023-06-22T04:02:21;96456.81;;;18.67;96.32
4012;BME280;2020;48.682;9.024;2023-06-22T04:04:46;96452.75;;;18.71;96.30
4012;BME280;2020;48.682;9.024;2023-06-22T04:07:11;96456.75;;;18.81;95.54
4012;BME280;2020;48.682;9.024;2023-06-22T04:09:37;96447.19;;;18.93;94.62
4012;BME280;2020;48.682;9.024;2023-06-22T04:12:02;96443.34;;;18.89;95.15
4012;BME280;2020;48.682;9.024;2023-06-22T04:14:27;96445.63;;;18.79;95.69
4012;BME280;2020;48.682;9.024;2023-06-22T04:16:53;96443.75;;;18.93;94.99
4012;BME280;2020;48.682;9.024;2023-06-22T04:19:18;96441.31;;;18.98;94.40
4012;BME280;2020;48.682;9.024;2023-06-22T04:21:44;96445.78;;;18.97;94.24
4012;BME280;2020;48.682;9.024;2023-06-22T04:24:10;96442.91;;;19.06;93.96
4012;BME280;2020;48.682;9.024;2023-06-22T04:26:35;96444.94;;;19.04;93.60
4012;BME280;2020;48.682;9.024;2023-06-22T04:29:03;96442.13;;;18.98;93.84
4012;BME280;2020;48.682;9.024;2023-06-22T04:31:31;96434.63;;;19.02;94.08
4012;BME280;2020;48.682;9.024;2023-06-22T04:33:57;96430.13;;;19.03;94.38
4012;BME280;2020;48.682;9.024;2023-06-22T04:36:22;96426.31;;;18.85;95.14
4012;BME280;2020;48.682;9.024;2023-06-22T04:38:48;96419.81;;;19.01;94.01
4012;BME280;2020;48.682;9.024;2023-06-22T04:41:14;96420.19;;;19.05;94.28
4012;BME280;2020;48.682;9.024;2023-06-22T04:43:48;96422.75;;;19.18;93.03
4012;BME280;2020;48.682;9.024;2023-06-22T04:46:19;96426.78;;;19.27;92.09
4012;BME280;2020;48.682;9.024;2023-06-22T04:48:44;96426.53;;;19.36;89.66
4012;BME280;2020;48.682;9.024;2023-06-22T04:51:09;96419.66;;;19.35;91.21
4012;BME280;2020;48.682;9.024;2023-06-22T04:53:35;96417.53;;;19.43;90.70
4012;BME280;2020;48.682;9.024;2023-06-22T04:56:00;96413.28;;;19.42;91.35
4012;BME280;2020;48.682;9.024;2023-06-22T04:58:26;96415.31;;;19.47;91.00
4012;BME280;2020;48.682;9.024;2023-06-22T05:00:53;96416.31;;;19.46;91.02
4012;BME280;2020;48.682;9.024;2023-06-22T05:03:22;96423.56;;;19.57;91.06
4012;BME280;2020;48.682;9.024;2023-06-22T05:05:47;96412.91;;;19.71;90.43
4012;BME280;2020;48.682;9.024;2023-06-22T05:08:13;96414.97;;;19.62;90.11
4012;BME280;2020;48.682;9.024;2023-06-22T05:10:38;96406.00;;;19.70;89.84
4012;BME280;2020;48.682;9.024;2023-06-22T05:13:03;96398.59;;;19.79;88.68
4012;BME280;2020;48.682;9.024;2023-06-22T05:15:29;96400.00;;;19.81;88.58
4012;BME280;2020;48.682;9.024;2023-06-22T05:17:56;96401.63;;;19.82;89.09
4012;BME280;2020;48.682;9.024;2023-06-22T05:20:21;96395.16;;;19.78;88.50
4012;BME280;2020;48.682;9.024;2023-06-22T05:22:47;96395.31;;;19.83;87.61
4012;BME280;2020;48.682;9.024;2023-06-22T05:25:13;96380.66;;;19.87;86.93
4012;BME280;2020;48.682;9.024;2023-06-22T05:27:38;96390.72;;;20.04;86.68
4012;BME280;2020;48.682;9.024;2023-06-22T05:30:06;96382.81;;;20.23;86.46
4012;BME280;2020;48.682;9.024;2023-06-22T05:32:32;96381.19;;;20.22;84.96
4012;BME280;2020;48.682;9.024;2023-06-22T05:34:57;96382.50;;;20.31;84.33
4012;BME280;2020;48.682;9.024;2023-06-22T05:37:22;96384.28;;;20.37;84.18
4012;BME280;2020;48.682;9.024;2023-06-22T05:39:48;96384.66;;;20.41;83.67
4012;BME280;2020;48.682;9.024;2023-06-22T05:42:13;96389.41;;;20.51;83.58
4012;BME280;2020;48.682;9.024;2023-06-22T05:44:38;96396.75;;;20.49;83.50
4012;BME280;2020;48.682;9.024;2023-06-22T05:47:05;96390.63;;;20.55;82.61
4012;BME280;2020;48.682;9.024;2023-06-22T05:49:31;96394.06;;;20.55;83.06
4012;BME280;2020;48.682;9.024;2023-06-22T05:51:58;96398.91;;;20.58;82.70
4012;BME280;2020;48.682;9.024;2023-06-22T05:54:23;96395.91;;;20.55;82.72
4012;BME280;2020;48.682;9.024;2023-06-22T05:56:48;96399.25;;;20.43;81.26
4012;BME280;2020;48.682;9.024;2023-06-22T05:59:14;96392.34;;;20.24;82.52
4012;BME280;2020;48.682;9.024;2023-06-22T06:01:39;96392.13;;;20.25;82.50
4012;BME280;2020;48.682;9.024;2023-06-22T06:04:05;96384.13;;;20.32;82.27
4012;BME280;2020;48.682;9.024;2023-06-22T06:06:33;96390.69;;;20.48;82.24
4012;BME280;2020;48.682;9.024;2023-06-22T06:09:00;96383.56;;;20.67;81.20
4012;BME280;2020;48.682;9.024;2023-06-22T06:11:25;96384.59;;;20.85;80.85
4012;BME280;2020;48.682;9.024;2023-06-22T06:13:51;96389.72;;;20.98;79.45
4012;BME280;2020;48.682;9.024;2023-06-22T06:16:16;96383.78;;;21.15;79.36
4012;BME280;2020;48.682;9.024;2023-06-22T06:18:41;96389.78;;;21.22;79.50
4012;BME280;2020;48.682;9.024;2023-06-22T06:21:07;96387.66;;;21.31;78.09
4012;BME280;2020;48.682;9.024;2023-06-22T06:23:32;96387.09;;;21.41;77.67
4012;BME280;2020;48.682;9.024;2023-06-22T06:25:57;96377.19;;;21.48;77.64
4012;BME280;2020;48.682;9.024;2023-06-22T06:28:24;96383.47;;;21.66;77.74
4012;BME280;2020;48.682;9.024;2023-06-22T06:30:50;96384.16;;;21.73;76.37
4012;BME280;2020;48.682;9.024;2023-06-22T06:33:16;96381.44;;;21.91;78.66
4012;BME280;2020;48.682;9.024;2023-06-22T06:35:42;96388.47;;;21.98;75.43
4012;BME280;2020;48.682;9.024;2023-06-22T06:38:07;96389.03;;;22.24;75.50
4012;BME280;2020;48.682;9.024;2023-06-22T06:40:32;96391.91;;;22.34;74.77
4012;BME280;2020;48.682;9.024;2023-06-22T06:42:57;96397.31;;;22.39;73.90
4012;BME280;2020;48.682;9.024;2023-06-22T06:45:23;96395.47;;;22.52;73.62
4012;BME280;2020;48.682;9.024;2023-06-22T06:47:50;96392.00;;;22.63;75.54
4012;BME280;2020;48.682;9.024;2023-06-22T06:50:16;96390.59;;;22.72;72.36
4012;BME280;2020;48.682;9.024;2023-06-22T06:52:41;96392.88;;;22.81;73.44
4012;BME280;2020;48.682;9.024;2023-06-22T06:55:07;96388.81;;;22.90;74.90
4012;BME280;2020;48.682;9.024;2023-06-22T06:57:35;96380.56;;;23.03;71.94
4012;BME280;2020;48.682;9.024;2023-06-22T07:00:02;96383.59;;;22.95;72.69
4012;BME280;2020;48.682;9.024;2023-06-22T07:02:35;96381.50;;;22.97;71.11
4012;BME280;2020;48.682;9.024;2023-06-22T07:05:00;96379.34;;;23.23;72.30
4012;BME280;2020;48.682;9.024;2023-06-22T07:07:29;96382.78;;;23.35;70.21
4012;BME280;2020;48.682;9.024;2023-06-22T07:09:54;96368.13;;;23.50;69.79
4012;BME280;2020;48.682;9.024;2023-06-22T07:12:19;96362.44;;;23.58;67.34
4012;BME280;2020;48.682;9.024;2023-06-22T07:14:44;96369.56;;;23.58;66.90
4012;BME280;2020;48.682;9.024;2023-06-22T07:17:10;96358.81;;;23.64;66.05
4012;BME280;2020;48.682;9.024;2023-06-22T07:19:35;96358.31;;;23.68;66.24
4012;BME280;2020;48.682;9.024;2023-06-22T07:22:00;96361.78;;;23.51;65.41
4012;BME280;2020;48.682;9.024;2023-06-22T07:24:26;96354.69;;;23.74;66.11
4012;BME280;2020;48.682;9.024;2023-06-22T07:26:52;96345.91;;;23.90;66.06
4012;BME280;2020;48.682;9.024;2023-06-22T07:29:17;96340.75;;;24.01;67.63
4012;BME280;2020;48.682;9.024;2023-06-22T07:31:44;96330.94;;;23.84;67.26
4012;BME280;2020;48.682;9.024;2023-06-22T07:34:09;96330.81;;;24.13;66.81
4012;BME280;2020;48.682;9.024;2023-06-22T07:36:35;96330.47;;;24.49;70.24
4012;BME280;2020;48.682;9.024;2023-06-22T07:39:02;96317.34;;;24.42;63.73
4012;BME280;2020;48.682;9.024;2023-06-22T07:41:28;96325.59;;;24.63;64.87
4012;BME280;2020;48.682;9.024;2023-06-22T07:43:53;96310.38;;;24.36;64.18
4012;BME280;2020;48.682;9.024;2023-06-22T07:46:19;96317.28;;;24.37;63.02
4012;BME280;2020;48.682;9.024;2023-06-22T07:48:44;96321.56;;;24.38;64.08
4012;BME280;2020;48.682;9.024;2023-06-22T07:51:09;96306.09;;;24.57;62.82
4012;BME280;2020;48.682;9.024;2023-06-22T07:53:38;96323.00;;;24.68;61.22
4012;BME280;2020;48.682;9.024;2023-06-22T07:56:05;96330.41;;;24.66;61.37
4012;BME280;2020;48.682;9.024;2023-06-22T07:58:32;96335.13;;;24.81;63.13
4012;BME280;2020;48.682;9.024;2023-06-22T08:00:57;96347.34;;;25.04;61.67
4012;BME280;2020;48.682;9.024;2023-06-22T08:03:23;96355.66;;;25.13;61.23
4012;BME280;2020;48.682;9.024;2023-06-22T08:05:48;96359.78;;;25.26;60.41
4012;BME280;2020;48.682;9.024;2023-06-22T08:08:14;96366.84;;;25.43;59.80
4012;BME280;2020;48.682;9.024;2023-06-22T08:10:39;96369.44;;;25.32;59.67
4012;BME280;2020;48.682;9.024;2023-06-22T08:13:06;96374.56;;;25.11;61.25
4012;BME280;2020;48.682;9.024;2023-06-22T08:15:31;96384.25;;;25.23;61.55
4012;BME280;2020;48.682;9.024;2023-06-22T08:17:56;96389.53;;;25.18;61.46
4012;BME280;2020;48.682;9.024;2023-06-22T08:20:23;96386.72;;;25.30;59.71
4012;BME280;2020;48.682;9.024;2023-06-22T08:22:48;96392.66;;;25.09;61.03
4012;BME280;2020;48.682;9.024;2023-06-22T08:25:14;96394.44;;;25.31;61.32
4012;BME280;2020;48.682;9.024;2023-06-22T08:27:40;96396.91;;;25.65;61.51
4012;BME280;2020;48.682;9.024;2023-06-22T08:30:06;96398.34;;;25.78;60.55
4012;BME280;2020;48.682;9.024;2023-06-22T08:32:32;96399.56;;;25.65;60.18
4012;BME280;2020;48.682;9.024;2023-06-22T08:35:00;96392.13;;;25.67;62.30
4012;BME280;2020;48.682;9.024;2023-06-22T08:37:25;96378.56;;;25.69;60.60
4012;BME280;2020;48.682;9.024;2023-06-22T08:39:59;96367.59;;;25.65;61.32
4012;BME280;2020;48.682;9.024;2023-06-22T08:42:24;96371.50;;;25.52;60.17
4012;BME280;2020;48.682;9.024;2023-06-22T08:44:50;96369.41;;;25.54;60.79
4012;BME280;2020;48.682;9.024;2023-06-22T08:47:16;96372.13;;;25.37;61.30
4012;BME280;2020;48.682;9.024;2023-06-22T08:49:41;96369.03;;;25.46;61.03
4012;BME280;2020;48.682;9.024;2023-06-22T08:52:07;96369.03;;;25.46;61.47
4012;BME280;2020;48.682;9.024;2023-06-22T08:54:32;96371.31;;;25.64;61.89
4012;BME280;2020;48.682;9.024;2023-06-22T08:56:59;96364.03;;;25.87;60.50
4012;BME280;2020;48.682;9.024;2023-06-22T08:59:25;96360.38;;;25.98;59.51
4012;BME280;2020;48.682;9.024;2023-06-22T09:01:50;96371.56;;;25.95;60.26
4012;BME280;2020;48.682;9.024;2023-06-22T09:04:15;96384.25;;;25.83;59.89
4012;BME280;2020;48.682;9.024;2023-06-22T09:06:40;96391.41;;;25.77;60.47
4012;BME280;2020;48.682;9.024;2023-06-22T09:09:10;96384.97;;;26.06;60.28
4012;BME280;2020;48.682;9.024;2023-06-22T09:11:35;96377.31;;;26.73;59.62
4012;BME280;2020;48.682;9.024;2023-06-22T09:14:01;96371.53;;;27.02;57.33
4012;BME280;2020;48.682;9.024;2023-06-22T09:16:26;96382.84;;;27.30;55.69
4012;BME280;2020;48.682;9.024;2023-06-22T09:18:51;96362.53;;;27.44;55.79
4012;BME280;2020;48.682;9.024;2023-06-22T09:21:16;96359.31;;;27.42;54.68
4012;BME280;2020;48.682;9.024;2023-06-22T09:23:42;96348.63;;;27.32;54.62
4012;BME280;2020;48.682;9.024;2023-06-22T09:26:08;96352.94;;;27.69;53.54
4012;BME280;2020;48.682;9.024;2023-06-22T09:28:34;96339.84;;;27.63;54.79
4012;BME280;2020;48.682;9.024;2023-06-22T09:30:59;96333.38;;;28.05;53.97
4012;BME280;2020;48.682;9.024;2023-06-22T09:33:26;96340.56;;;28.10;53.76
4012;BME280;2020;48.682;9.024;2023-06-22T09:35:51;96328.59;;;27.92;53.09
4012;BME280;2020;48.682;9.024;2023-06-22T09:38:17;96336.06;;;28.00;53.79
4012;BME280;2020;48.682;9.024;2023-06-22T09:40:42;96322.84;;;28.35;52.81
4012;BME280;2020;48.682;9.024;2023-06-22T09:43:08;96321.78;;;28.36;51.48
4012;BME280;2020;48.682;9.024;2023-06-22T09:45:33;96307.75;;;28.65;52.64
4012;BME280;2020;48.682;9.024;2023-06-22T09:47:58;96303.44;;;28.69;51.13
4012;BME280;2020;48.682;9.024;2023-06-22T09:50:24;96291.69;;;28.65;51.28
4012;BME280;2020;48.682;9.024;2023-06-22T09:52:49;96293.22;;;28.81;51.65
4012;BME280;2020;48.682;9.024;2023-06-22T09:55:20;96294.19;;;29.01;51.65
4012;BME280;2020;48.682;9.024;2023-06-22T09:57:45;96295.88;;;28.86;50.87
4012;BME280;2020;48.682;9.024;2023-06-22T10:00:11;96290.22;;;28.33;52.29
4012;BME280;2020;48.682;9.024;2023-06-22T10:02:41;96292.38;;;28.30;51.84
4012;BME280;2020;48.682;9.024;2023-06-22T10:05:06;96283.63;;;28.14;51.84
4012;BME280;2020;48.682;9.024;2023-06-22T10:07:32;96279.06;;;28.15;51.20
4012;BME280;2020;48.682;9.024;2023-06-22T10:09:58;96272.03;;;28.29;52.53
4012;BME280;2020;48.682;9.024;2023-06-22T10:12:23;96285.41;;;28.35;51.59
4012;BME280;2020;48.682;9.024;2023-06-22T10:14:48;96280.53;;;28.47;51.53
4012;BME280;2020;48.682;9.024;2023-06-22T10:17:13;96276.13;;;28.72;50.04
4012;BME280;2020;48.682;9.024;2023-06-22T10:19:39;96261.66;;;28.73;50.49
4012;BME280;2020;48.682;9.024;2023-06-22T10:22:06;96266.84;;;29.04;50.04
4012;BME280;2020;48.682;9.024;2023-06-22T10:24:31;96258.19;;;29.12;49.99
4012;BME280;2020;48.682;9.024;2023-06-22T10:26:56;96268.44;;;29.05;49.77
4012;BME280;2020;48.682;9.024;2023-06-22T10:29:22;96259.16;;;29.27;48.40
4012;BME280;2020;48.682;9.024;2023-06-22T10:31:47;96255.63;;;29.61;47.28
4012;BME280;2020;48.682;9.024;2023-06-22T10:34:12;96255.84;;;29.70;46.55
4012;BME280;2020;48.682;9.024;2023-06-22T10:36:38;96253.28;;;29.84;48.27
4012;BME280;2020;48.682;9.024;2023-06-22T10:39:03;96251.34;;;30.14;48.80
4012;BME280;2020;48.682;9.024;2023-06-22T10:41:29;96244.19;;;29.80;47.38
4012;BME280;2020;48.682;9.024;2023-06-22T10:43:55;96243.31;;;29.60;48.93
4012;BME280;2020;48.682;9.024;2023-06-22T10:46:21;96249.03;;;29.77;47.43
4012;BME280;2020;48.682;9.024;2023-06-22T10:48:46;96252.38;;;29.64;47.34
4012;BME280;2020;48.682;9.024;2023-06-22T10:51:11;96250.34;;;29.80;47.14
4012;BME280;2020;48.682;9.024;2023-06-22T10:53:37;96250.97;;;29.72;48.10
4012;BME280;2020;48.682;9.024;2023-06-22T10:56:02;96247.03;;;29.64;47.54
4012;BME280;2020;48.682;9.024;2023-06-22T10:58:27;96247.59;;;29.61;47.89
4012;BME280;2020;48.682;9.024;2023-06-22T11:00:53;96251.25;;;29.70;48.21
4012;BME280;2020;48.682;9.024;2023-06-22T11:03:18;96244.66;;;29.62;48.26
4012;BME280;2020;48.682;9.024;2023-06-22T11:05:43;96252.38;;;29.40;48.19
4012;BME280;2020;48.682;9.024;2023-06-22T11:08:08;96252.09;;;29.36;47.73
4012;BME280;2020;48.682;9.024;2023-06-22T11:10:34;96247.88;;;29.30;48.26
4012;BME280;2020;48.682;9.024;2023-06-22T11:12:59;96265.53;;;29.31;48.26
4012;BME280;2020;48.682;9.024;2023-06-22T11:15:25;96263.72;;;29.26;48.18
4012;BME280;2020;48.682;9.024;2023-06-22T11:17:50;96255.38;;;29.28;48.01
4012;BME280;2020;48.682;9.024;2023-06-22T11:20:15;96244.34;;;29.35;48.19
4012;BME280;2020;48.682;9.024;2023-06-22T11:22:41;96236.50;;;29.43;47.93
4012;BME280;2020;48.682;9.024;2023-06-22T11:25:07;96240.63;;;29.60;48.03
4012;BME280;2020;48.682;9.024;2023-06-22T11:27:33;96244.53;;;29.73;47.53
4012;BME280;2020;48.682;9.024;2023-06-22T11:29:58;96244.94;;;29.85;47.07
4012;BME280;2020;48.682;9.024;2023-06-22T11:32:23;96238.25;;;29.58;47.66
4012;BME280;2020;48.682;9.024;2023-06-22T11:34:49;96237.78;;;29.75;48.34
4012;BME280;2020;48.682;9.024;2023-06-22T11:37:14;96230.75;;;29.85;47.05
4012;BME280;2020;48.682;9.024;2023-06-22T11:39:40;96227.84;;;30.05;47.55
4012;BME280;2020;48.682;9.024;2023-06-22T11:42:06;96240.78;;;29.98;47.81
4012;BME280;2020;48.682;9.024;2023-06-22T11:44:31;96232.59;;;29.60;49.06
4012;BME280;2020;48.682;9.024;2023-06-22T11:46:56;96226.78;;;29.53;48.54
4012;BME280;2020;48.682;9.024;2023-06-22T11:49:22;96234.59;;;29.14;48.91
4012;BME280;2020;48.682;9.024;2023-06-22T11:51:47;96242.28;;;29.26;49.43
4012;BME280;2020;48.682;9.024;2023-06-22T11:54:12;96265.63;;;29.21;49.04
4012;BME280;2020;48.682;9.024;2023-06-22T11:56:37;96264.53;;;29.22;49.50
4012;BME280;2020;48.682;9.024;2023-06-22T11:59:03;96264.53;;;29.22;49.88
4012;BME280;2020;48.682;9.024;2023-06-22T12:01:28;96269.47;;;29.09;50.00
4012;BME280;2020;48.682;9.024;2023-06-22T12:03:53;96267.34;;;29.06;49.84
4012;BME280;2020;48.682;9.024;2023-06-22T12:06:18;96256.19;;;28.94;50.03
4012;BME280;2020;48.682;9.024;2023-06-22T12:08:44;96252.91;;;29.02;50.02
4012;BME280;2020;48.682;9.024;2023-06-22T12:11:09;96254.69;;;29.17;50.39
4012;BME280;2020;48.682;9.024;2023-06-22T12:13:34;96246.88;;;29.21;50.70
4012;BME280;2020;48.682;9.024;2023-06-22T12:15:59;96244.56;;;29.38;50.73
4012;BME280;2020;48.682;9.024;2023-06-22T12:18:25;96235.47;;;29.39;50.66
4012;BME280;2020;48.682;9.024;2023-06-22T12:20:50;96236.00;;;29.41;51.83
4012;BME280;2020;48.682;9.024;2023-06-22T12:23:15;96257.44;;;29.36;50.38
4012;BME280;2020;48.682;9.024;2023-06-22T12:25:41;96275.69;;;29.34;51.00
4012;BME280;2020;48.682;9.024;2023-06-22T12:28:06;96280.25;;;28.99;51.82
4012;BME280;2020;48.682;9.024;2023-06-22T12:30:34;96287.88;;;28.76;53.17
4012;BME280;2020;48.682;9.024;2023-06-22T12:32:59;96275.53;;;28.85;53.13
4012;BME280;2020;48.682;9.024;2023-06-22T12:35:24;96255.22;;;28.79;52.29
4012;BME280;2020;48.682;9.024;2023-06-22T12:37:50;96251.41;;;28.91;52.26
4012;BME280;2020;48.682;9.024;2023-06-22T12:40:15;96268.03;;;28.87;51.72
4012;BME280;2020;48.682;9.024;2023-06-22T12:42:40;96277.13;;;28.86;52.21
4012;BME280;2020;48.682;9.024;2023-06-22T12:45:07;96285.19;;;28.81;52.44
4012;BME280;2020;48.682;9.024;2023-06-22T12:47:32;96289.50;;;28.77;52.37
4012;BME280;2020;48.682;9.024;2023-06-22T12:49:58;96301.84;;;28.68;53.44
4012;BME280;2020;48.682;9.024;2023-06-22T12:52:23;96310.47;;;28.59;54.77
4012;BME280;2020;48.682;9.024;2023-06-22T12:54:48;96320.19;;;28.35;54.58
4012;BME280;2020;48.682;9.024;2023-06-22T12:57:14;96311.44;;;28.19;55.08
4012;BME280;2020;48.682;9.024;2023-06-22T12:59:39;96292.97;;;28.17;55.31
4012;BME280;2020;48.682;9.024;2023-06-22T13:02:05;96284.38;;;28.25;55.15
4012;BME280;2020;48.682;9.024;2023-06-22T13:04:30;96282.22;;;28.27;54.71
4012;BME280;2020;48.682;9.024;2023-06-22T13:06:55;96272.06;;;28.24;54.55
4012;BME280;2020;48.682;9.024;2023-06-22T13:09:21;96252.22;;;28.36;54.06
4012;BME280;2020;48.682;9.024;2023-06-22T13:11:46;96254.84;;;28.46;53.58
4012;BME280;2020;48.682;9.024;2023-06-22T13:14:11;96241.16;;;28.53;53.44
4012;BME280;2020;48.682;9.024;2023-06-22T13:16:37;96239.19;;;28.69;52.74